Time;durP1;ratioP1;P1;durP2;ratioP2;P2;SDS_P1;SDS_P2;PMS_P1;PMS_P2;Temp;Humidity;BMP_temperature;BMP_pressure;BME280_temperature;BME280_humidity;BME280_pressure;Samples;Min_cycle;Max_cycle;Signal;HPM_P1;HPM_P2
2023/09/12 00:03:47;;;;;;;37.55;22.55;;;;;;;-147.65;100.00;57646.63;10472845;28;20044;-78
2023/09/12 00:08:48;;;;;;;38.85;22.13;;;;;;;-147.65;100.00;57646.63;10484663;28;20047;-77
2023/09/12 00:13:48;;;;;;;40.42;27.75;;;;;;;-147.65;100.00;57646.63;10433875;28;20488;-77
2023/09/12 00:18:49;;;;;;;42.10;23.50;;;;;;;-147.65;100.00;57646.63;10467072;28;20044;-79
2023/09/12 00:23:49;;;;;;;37.33;23.60;;;;;;;-147.65;100.00;57646.63;10499353;28;20041;-78
2023/09/12 00:28:50;;;;;;;52.80;28.60;;;;;;;-147.65;100.00;57646.63;10464423;28;20067;-79
2023/09/12 00:33:50;;;;;;;42.03;24.60;;;;;;;-147.65;100.00;57646.63;10459639;28;20083;-78
2023/09/12 00:38:51;;;;;;;61.63;24.05;;;;;;;-147.65;100.00;57646.63;10461005;28;20181;-79
2023/09/12 00:43:51;;;;;;;37.40;24.75;;;;;;;-147.65;100.00;57646.63;10447586;28;20494;-78
2023/09/12 00:48:52;;;;;;;70.97;29.33;;;;;;;-147.65;100.00;57646.63;10466674;28;20037;-79
2023/09/12 00:53:53;;;;;;;50.25;29.33;;;;;;;-147.65;100.00;57646.63;10481825;28;20040;-79
2023/09/12 00:58:55;;;;;;;42.22;28.67;;;;;;;-147.65;100.00;57646.63;10494151;28;20040;-78
2023/09/12 01:03:55;;;;;;;50.57;28.47;;;;;;;-147.65;100.00;57646.63;10440353;28;20128;-78
2023/09/12 01:08:56;;;;;;;47.50;28.92;;;;;;;-147.65;100.00;57646.63;10490824;28;20040;-78
2023/09/12 01:13:56;;;;;;;55.53;32.55;;;;;;;-147.65;100.00;57646.63;10441506;28;20051;-78
2023/09/12 01:18:57;;;;;;;54.92;32.17;;;;;;;-147.65;100.00;57646.63;10485091;28;20416;-77
2023/09/12 01:24:00;;;;;;;55.63;34.28;;;;;;;-147.65;100.00;57646.63;10469126;28;20064;-78
2023/09/12 01:29:01;;;;;;;49.58;30.25;;;;;;;-147.65;100.00;57646.63;10463801;28;20123;-79
2023/09/12 01:34:11;;;;;;;48.45;28.45;;;;;;;-147.65;100.00;57646.63;10467068;28;20400;-78
2023/09/12 01:39:11;;;;;;;53.78;32.35;;;;;;;-147.65;100.00;57646.63;10495020;28;20048;-78
2023/09/12 01:44:12;;;;;;;55.60;33.78;;;;;;;-147.65;100.00;57646.63;10445447;28;20792;-78
2023/09/12 01:49:12;;;;;;;54.53;33.40;;;;;;;-147.65;100.00;57646.63;10479281;28;20079;-79
2023/09/12 01:54:13;;;;;;;60.60;33.53;;;;;;;-147.65;100.00;57646.63;10480599;28;20047;-78
2023/09/12 01:59:13;;;;;;;57.95;32.78;;;;;;;-147.65;100.00;57646.63;10486196;28;20401;-78
2023/09/12 02:04:14;;;;;;;53.67;33.40;;;;;;;-147.65;100.00;57646.63;10473246;28;20044;-78
2023/09/12 02:09:14;;;;;;;54.00;33.55;;;;;;;-147.65;100.00;57646.63;10488378;28;20105;-78
2023/09/12 02:14:15;;;;;;;49.45;32.67;;;;;;;-147.65;100.00;57646.63;10472976;28;20105;-78
2023/09/12 02:19:16;;;;;;;61.75;33.33;;;;;;;-147.65;100.00;57646.63;10471526;28;20404;-78
2023/09/12 02:24:18;;;;;;;46.45;27.15;;;;;;;-147.65;100.00;57646.63;10472562;28;20132;-77
2023/09/12 02:29:18;;;;;;;44.13;28.48;;;;;;;-147.65;100.00;57646.63;10461535;28;20046;-78
2023/09/12 02:34:19;;;;;;;49.88;29.33;;;;;;;-147.65;100.00;57646.63;10484536;28;20040;-78
2023/09/12 02:39:19;;;;;;;56.10;31.48;;;;;;;-147.65;100.00;57646.63;10477971;28;20047;-78
2023/09/12 02:44:20;;;;;;;48.13;29.67;;;;;;;-147.65;100.00;57646.63;10503520;28;20033;-79
2023/09/12 02:49:21;;;;;;;65.95;34.53;;;;;;;-147.65;100.00;57646.63;10495179;28;20111;-78
2023/09/12 02:54:21;;;;;;;58.63;31.95;;;;;;;-147.65;100.00;57646.63;10470060;28;20124;-79
2023/09/12 02:59:23;;;;;;;59.55;35.70;;;;;;;-147.65;100.00;57646.63;10487385;28;20098;-78
2023/09/12 03:04:25;;;;;;;75.38;34.08;;;;;;;-147.65;100.00;57646.63;10495533;28;20059;-77
2023/09/12 03:09:26;;;;;;;63.67;32.30;;;;;;;-147.65;100.00;57646.63;10393290;28;20486;-77
2023/09/12 03:14:28;;;;;;;54.13;30.42;;;;;;;-147.65;100.00;57646.63;10402445;28;20045;-78
2023/09/12 03:19:29;;;;;;;61.40;34.58;;;;;;;-147.65;100.00;57646.63;10406146;28;20186;-78
2023/09/12 03:24:31;;;;;;;68.95;35.20;;;;;;;-147.65;100.00;57646.63;10400512;28;20099;-77
2023/09/12 03:29:31;;;;;;;65.20;36.45;;;;;;;-147.65;100.00;57646.63;10456548;28;20147;-78
2023/09/12 03:34:32;;;;;;;66.22;36.80;;;;;;;-147.65;100.00;57646.63;10425079;28;20051;-78
2023/09/12 03:39:32;;;;;;;76.63;39.85;;;;;;;-147.65;100.00;57646.63;10447180;28;20041;-78
2023/09/12 03:44:33;;;;;;;62.95;33.15;;;;;;;-147.65;100.00;57646.63;10444766;28;20039;-79
2023/09/12 03:49:33;;;;;;;54.78;33.97;;;;;;;-147.65;100.00;57646.63;10441347;28;20561;-79
2023/09/12 03:54:34;;;;;;;67.70;32.08;;;;;;;-147.65;100.00;57646.63;10443597;28;20131;-78
2023/09/12 03:59:34;;;;;;;64.10;36.85;;;;;;;-147.65;100.00;57646.63;10454561;28;20473;-78
2023/09/12 04:04:35;;;;;;;80.95;37.30;;;;;;;-147.65;100.00;57646.63;10452693;28;20057;-77
2023/09/12 04:09:35;;;;;;;69.72;39.45;;;;;;;-147.65;100.00;57646.63;10434297;28;20037;-79
2023/09/12 04:14:36;;;;;;;67.50;37.40;;;;;;;-147.65;100.00;57646.63;10435414;28;20041;-78
2023/09/12 04:19:37;;;;;;;72.07;38.97;;;;;;;-147.65;100.00;57646.63;10477413;28;20052;-78
2023/09/12 04:24:38;;;;;;;69.32;34.40;;;;;;;-147.65;100.00;57646.63;10416934;28;20044;-78
2023/09/12 04:29:39;;;;;;;64.07;36.22;;;;;;;-147.65;100.00;57646.63;10438243;28;20091;-79
2023/09/12 04:34:42;;;;;;;89.13;46.03;;;;;;;-147.65;100.00;57646.63;10420625;28;20499;-78
2023/09/12 04:39:43;;;;;;;75.07;41.28;;;;;;;-147.65;100.00;57646.63;10423446;28;20037;-80
2023/09/12 04:44:44;;;;;;;88.35;48.13;;;;;;;-147.65;100.00;57646.63;10385999;28;20097;-76
2023/09/12 04:49:44;;;;;;;100.05;51.40;;;;;;;-147.65;100.00;57646.63;10392839;28;20037;-78
2023/09/12 04:54:45;;;;;;;91.43;55.13;;;;;;;-147.65;100.00;57646.63;10401017;28;20112;-78
2023/09/12 04:59:45;;;;;;;109.15;56.35;;;;;;;-147.65;100.00;57646.63;10406233;28;20047;-78
2023/09/12 05:04:46;;;;;;;102.75;54.95;;;;;;;-147.65;100.00;57646.63;10430877;28;20082;-78
2023/09/12 05:09:47;;;;;;;86.47;46.42;;;;;;;-147.65;100.00;57646.63;10442669;28;20105;-79
2023/09/12 05:14:47;;;;;;;91.65;51.30;;;;;;;-147.65;100.00;57646.63;10440570;28;20059;-80
2023/09/12 05:19:48;;;;;;;105.47;52.55;;;;;;;-147.65;100.00;57646.63;10419748;28;20076;-81
2023/09/12 05:24:49;;;;;;;106.53;58.38;;;;;;;-147.65;100.00;57646.63;10424259;28;20037;-75
2023/09/12 05:29:50;;;;;;;89.57;49.35;;;;;;;-147.65;100.00;57646.63;10403134;28;20398;-76
2023/09/12 05:34:50;;;;;;;98.03;51.25;;;;;;;-147.65;100.00;57646.63;10398195;28;20045;-77
2023/09/12 05:39:51;;;;;;;91.35;49.22;;;;;;;-147.65;100.00;57646.63;10441828;28;20580;-77
2023/09/12 05:44:54;;;;;;;87.35;48.92;;;;;;;-147.65;100.00;57646.63;10407712;28;20132;-77
2023/09/12 05:49:55;;;;;;;76.75;45.28;;;;;;;-147.65;100.00;57646.63;10407648;28;20041;-77
2023/09/12 05:54:56;;;;;;;108.50;57.37;;;;;;;-147.65;100.00;57646.63;10405184;28;20133;-76
2023/09/12 05:59:56;;;;;;;97.80;50.25;;;;;;;-147.65;100.00;57646.63;10396677;28;20034;-77
2023/09/12 06:04:57;;;;;;;107.10;55.10;;;;;;;-147.65;100.00;57646.63;10453531;28;20060;-77
2023/09/12 06:09:58;;;;;;;110.90;55.80;;;;;;;-147.65;100.00;57646.63;10447655;28;20048;-77
2023/09/12 06:14:59;;;;;;;110.05;60.40;;;;;;;-147.65;100.00;57646.63;10443217;28;20041;-77
2023/09/12 06:19:59;;;;;;;117.90;60.53;;;;;;;-147.65;100.00;57646.63;10463341;28;20166;-77
2023/09/12 06:25:00;;;;;;;100.10;51.35;;;;;;;-147.65;100.00;57646.63;10479426;28;20972;-77
2023/09/12 06:30:01;;;;;;;111.40;59.28;;;;;;;-147.65;100.00;57646.63;10445216;28;20052;-77
2023/09/12 06:35:01;;;;;;;126.35;56.58;;;;;;;-147.65;100.00;57646.63;10445606;28;20494;-77
2023/09/12 06:40:03;;;;;;;110.07;56.30;;;;;;;-147.65;100.00;57646.63;10478982;28;20036;-77
2023/09/12 06:45:04;;;;;;;89.32;48.90;;;;;;;-147.65;100.00;57646.63;10445890;28;20484;-77
2023/09/12 06:50:05;;;;;;;123.07;66.13;;;;;;;-147.65;100.00;57646.63;10477442;28;20057;-79
2023/09/12 06:55:07;;;;;;;111.40;62.90;;;;;;;-147.65;100.00;57646.63;10440417;28;20044;-79
2023/09/12 07:00:08;;;;;;;110.53;60.63;;;;;;;-147.65;100.00;57646.63;10477316;28;20059;-77
2023/09/12 07:05:09;;;;;;;120.25;61.33;;;;;;;-147.65;100.00;57646.63;10460567;28;20037;-76
2023/09/12 07:10:09;;;;;;;117.15;60.20;;;;;;;-147.65;100.00;57646.63;10443792;28;20102;-77
2023/09/12 07:15:10;;;;;;;121.82;62.72;;;;;;;-147.65;100.00;57646.63;10478313;28;20473;-77
2023/09/12 07:20:11;;;;;;;107.57;61.13;;;;;;;-147.65;100.00;57646.63;10458300;28;20044;-77
2023/09/12 07:25:13;;;;;;;117.40;64.20;;;;;;;-147.65;100.00;57646.63;10445254;28;20122;-77
2023/09/12 07:30:13;;;;;;;;;;;;;;;-147.65;100.00;57646.63;10460277;28;20029;-77
2023/09/12 07:35:15;;;;;;;124.43;61.17;;;;;;;-147.65;100.00;57646.63;10442203;28;19928;-77
2023/09/12 07:40:15;;;;;;;105.77;56.73;;;;;;;-147.65;100.00;57646.63;10475966;28;20477;-77
2023/09/12 07:45:16;;;;;;;88.05;52.40;;;;;;;-147.65;100.00;57646.63;10442958;28;20075;-78
2023/09/12 07:50:16;;;;;;;42.23;30.60;;;;;;;-147.65;100.00;57646.63;10444990;28;20128;-78
2023/09/12 07:55:17;;;;;;;34.27;23.37;;;;;;;-147.65;100.00;57646.63;10467334;28;20151;-78
2023/09/12 08:00:17;;;;;;;33.20;23.90;;;;;;;-147.65;100.00;57646.63;10467963;28;20377;-78
2023/09/12 08:05:19;;;;;;;28.63;20.97;;;;;;;-147.65;100.00;57646.63;10459402;28;20094;-78
2023/09/12 08:10:19;;;;;;;27.83;21.95;;;;;;;-147.65;100.00;57646.63;10459601;28;20080;-78
2023/09/12 08:15:20;;;;;;;28.13;22.90;;;;;;;-147.65;100.00;57646.63;10465635;28;20049;-78
2023/09/12 08:20:21;;;;;;;32.17;23.87;;;;;;;-147.65;100.00;57646.63;10465126;28;20060;-78
2023/09/12 08:25:21;;;;;;;37.10;22.93;;;;;;;-147.65;100.00;57646.63;10475692;28;20095;-80
2023/09/12 08:30:22;;;;;;;37.70;25.73;;;;;;;-147.65;100.00;57646.63;10490973;28;20049;-81
2023/09/12 08:35:22;;;;;;;36.65;23.90;;;;;;;-147.65;100.00;57646.63;10465257;28;20048;-77
2023/09/12 08:40:23;;;;;;;34.80;26.83;;;;;;;-147.65;100.00;57646.63;10494174;28;20392;-77
2023/09/12 08:45:24;;;;;;;37.00;26.30;;;;;;;-147.65;100.00;57646.63;10467319;28;20039;-77
2023/09/12 08:50:24;;;;;;;36.73;27.10;;;;;;;-147.65;100.00;57646.63;10483871;28;20041;-77
2023/09/12 08:55:25;;;;;;;29.27;21.37;;;;;;;-147.65;100.00;57646.63;10451257;28;20548;-77
2023/09/12 09:00:26;;;;;;;37.87;29.40;;;;;;;-147.65;100.00;57646.63;10474123;28;20272;-77
2023/09/12 09:05:27;;;;;;;43.00;26.10;;;;;;;-147.65;100.00;57646.63;10490795;28;20131;-77
2023/09/12 09:10:32;;;;;;;36.38;28.10;;;;;;;-147.65;100.00;57646.63;10457228;28;20040;-77
2023/09/12 09:15:32;;;;;;;27.50;21.67;;;;;;;-147.65;100.00;57646.63;10472193;28;20041;-78
2023/09/12 09:20:37;;;;;;;55.20;39.65;;;;;;;-147.65;100.00;57646.63;10456851;28;20121;-79
2023/09/12 09:25:42;;;;;;;24.85;17.08;;;;;;;-147.65;100.00;57646.63;10462190;28;20041;-79
2023/09/12 09:30:46;;;;;;;29.17;22.45;;;;;;;-147.65;100.00;57646.63;10480625;28;20056;-79
2023/09/12 09:35:48;;;;;;;38.53;21.85;;;;;;;-147.65;100.00;57646.63;10479534;28;20029;-78
2023/09/12 09:40:50;;;;;;;25.67;21.35;;;;;;;-147.65;100.00;57646.63;10398521;28;20065;-78
2023/09/12 09:45:51;;;;;;;29.27;23.27;;;;;;;-147.65;100.00;57646.63;10391513;28;20057;-78
2023/09/12 09:50:54;;;;;;;30.52;24.15;;;;;;;-147.65;100.00;57646.63;10456411;28;20044;-78
2023/09/12 09:56:14;;;;;;;27.60;21.73;;;;;;;-147.65;100.00;57646.63;10454881;28;20060;-78
2023/09/12 10:01:21;;;;;;;31.30;22.55;;;;;;;-147.65;100.00;57646.63;10436380;28;20040;-78
2023/09/12 10:06:22;;;;;;;32.40;23.52;;;;;;;-147.65;100.00;57646.63;10435458;28;20395;-78
2023/09/12 10:11:24;;;;;;;29.67;23.97;;;;;;;-147.65;100.00;57646.63;10453673;28;20035;-77
2023/09/12 10:16:29;;;;;;;40.75;27.88;;;;;;;-147.65;100.00;57646.63;10446857;28;20033;-77
2023/09/12 10:21:33;;;;;;;33.53;26.08;;;;;;;-147.65;100.00;57646.63;10462190;28;20358;-77
2023/09/12 10:26:34;;;;;;;34.50;26.55;;;;;;;-147.65;100.00;57646.63;10427447;28;20072;-77
2023/09/12 10:31:34;;;;;;;31.97;25.13;;;;;;;-147.65;100.00;57646.63;10446655;28;20516;-77
2023/09/12 10:36:38;;;;;;;32.80;26.23;;;;;;;-147.65;100.00;57646.63;10435625;28;20037;-76
2023/09/12 10:41:39;;;;;;;30.33;25.25;;;;;;;-147.65;100.00;57646.63;10452555;28;20045;-77
2023/09/12 10:46:40;;;;;;;28.13;24.25;;;;;;;-147.65;100.00;57646.63;10403207;28;20134;-76
2023/09/12 10:51:41;;;;;;;38.72;28.02;;;;;;;-147.65;100.00;57646.63;10397850;28;20041;-76
2023/09/12 10:56:44;;;;;;;30.10;26.00;;;;;;;-147.65;100.00;57646.63;10405939;28;20034;-77
2023/09/12 11:01:48;;;;;;;29.42;20.00;;;;;;;-147.65;100.00;57646.63;10412830;28;20041;-76
2023/09/12 11:06:49;;;;;;;30.98;22.55;;;;;;;-147.65;100.00;57646.63;10397389;28;20037;-76
2023/09/12 11:12:03;;;;;;;38.47;22.92;;;;;;;-147.65;100.00;57646.63;10486689;28;20504;-76
2023/09/12 11:17:07;;;;;;;27.55;22.95;;;;;;;-147.65;100.00;57646.63;10443070;28;20040;-76
2023/09/12 11:22:21;;;;;;;24.70;21.10;;;;;;;-147.65;100.00;57646.63;10459693;28;20048;-76
2023/09/12 11:27:23;;;;;;;25.27;21.88;;;;;;;-147.65;100.00;57646.63;10455723;28;20091;-77
2023/09/12 11:32:32;;;;;;;25.85;18.85;;;;;;;-147.65;100.00;57646.63;10445466;28;20065;-76
2023/09/12 11:37:33;;;;;;;21.40;17.17;;;;;;;-147.65;100.00;57646.63;10401644;28;20037;-76
2023/09/12 11:42:33;;;;;;;28.20;16.88;;;;;;;-147.65;100.00;57646.63;10426973;28;20038;-76
2023/09/12 11:47:34;;;;;;;19.43;16.30;;;;;;;-147.65;100.00;57646.63;10418349;28;20047;-76
2023/09/12 11:52:38;;;;;;;19.40;16.30;;;;;;;-147.65;100.00;57646.63;10407925;28;20037;-76
2023/09/12 11:57:38;;;;;;;19.15;17.05;;;;;;;-147.65;100.00;57646.63;10467244;28;20440;-75
2023/09/12 12:02:39;;;;;;;19.17;15.23;;;;;;;-147.65;100.00;57646.63;10453416;28;20239;-76
2023/09/12 12:07:42;;;;;;;18.97;16.30;;;;;;;-147.65;100.00;57646.63;10433821;28;20086;-75
2023/09/12 12:12:46;;;;;;;18.33;14.55;;;;;;;-147.65;100.00;57646.63;10417627;28;20045;-76
2023/09/12 12:17:46;;;;;;;15.98;13.00;;;;;;;-147.65;100.00;57646.63;10439592;28;20488;-76
2023/09/12 12:22:47;;;;;;;13.47;12.07;;;;;;;-147.65;100.00;57646.63;10445605;28;20072;-76
2023/09/12 12:27:48;;;;;;;18.40;13.50;;;;;;;-147.65;100.00;57646.63;10453521;28;20108;-77
2023/09/12 12:32:51;;;;;;;15.17;12.27;;;;;;;-147.65;100.00;57646.63;10458518;28;20041;-76
2023/09/12 12:37:55;;;;;;;14.57;12.13;;;;;;;-147.65;100.00;57646.63;10459597;28;20091;-77
2023/09/12 12:42:55;;;;;;;17.63;14.13;;;;;;;-147.65;100.00;57646.63;10462447;28;20041;-77
2023/09/12 12:48:00;;;;;;;13.65;11.13;;;;;;;-147.65;100.00;57646.63;10498421;28;20499;-78
2023/09/12 12:53:01;;;;;;;16.42;11.88;;;;;;;-147.65;100.00;57646.63;10494777;28;20044;-77
2023/09/12 12:58:01;;;;;;;20.30;17.45;;;;;;;-147.65;100.00;57646.63;10456607;28;20497;-78
2023/09/12 13:03:03;;;;;;;29.77;14.47;;;;;;;-147.65;100.00;57646.63;10489023;28;20044;-77
2023/09/12 13:08:04;;;;;;;23.88;17.00;;;;;;;-147.65;100.00;57646.63;10460281;28;20347;-77
2023/09/12 13:13:04;;;;;;;15.43;13.77;;;;;;;-147.65;100.00;57646.63;10468136;28;20040;-77
2023/09/12 13:18:05;;;;;;;12.50;11.20;;;;;;;-147.65;100.00;57646.63;10475094;28;20519;-78
2023/09/12 13:23:06;;;;;;;14.85;11.48;;;;;;;-147.65;100.00;57646.63;10466055;28;20044;-77
2023/09/12 13:28:06;;;;;;;14.82;11.65;;;;;;;-147.65;100.00;57646.63;10479617;28;20389;-78
2023/09/12 13:33:07;;;;;;;18.13;12.95;;;;;;;-147.65;100.00;57646.63;10462984;28;20075;-77
2023/09/12 13:38:11;;;;;;;18.17;12.73;;;;;;;-147.65;100.00;57646.63;10408565;28;20081;-77
2023/09/12 13:43:18;;;;;;;17.15;10.82;;;;;;;-147.65;100.00;57646.63;10458624;28;20128;-76
2023/09/12 13:48:19;;;;;;;12.10;9.85;;;;;;;-147.65;100.00;57646.63;10450467;28;20044;-76
2023/09/12 13:53:19;;;;;;;9.80;8.45;;;;;;;-147.65;100.00;57646.63;10493702;28;20049;-77
2023/09/12 13:58:20;;;;;;;9.23;8.00;;;;;;;-147.65;100.00;57646.63;10469297;28;20044;-78
2023/09/12 14:03:20;;;;;;;15.98;11.15;;;;;;;-147.65;100.00;57646.63;10500991;28;20036;-75
2023/09/12 14:08:21;;;;;;;13.07;8.87;;;;;;;-147.65;100.00;57646.63;10469924;28;20136;-76
2023/09/12 14:13:21;;;;;;;11.63;8.20;;;;;;;-147.65;100.00;57646.63;10487576;28;20512;-76
2023/09/12 14:18:22;;;;;;;14.70;11.43;;;;;;;-147.65;100.00;57646.63;10457582;28;20116;-77
2023/09/12 14:23:23;;;;;;;13.60;8.93;;;;;;;-147.65;100.00;57646.63;10479487;28;20045;-76
2023/09/12 14:28:23;;;;;;;9.67;8.67;;;;;;;-147.65;100.00;57646.63;10461905;28;20171;-76
2023/09/12 14:33:24;;;;;;;8.53;7.17;;;;;;;-147.65;100.00;57646.63;10470364;28;20044;-76
2023/09/12 14:38:25;;;;;;;12.30;9.40;;;;;;;-147.65;100.00;57646.63;10474845;28;20059;-76
2023/09/12 14:43:28;;;;;;;13.87;10.30;;;;;;;-147.65;100.00;57646.63;10438887;28;20407;-76
2023/09/12 14:48:30;;;;;;;16.77;13.90;;;;;;;-147.65;100.00;57646.63;10455420;28;20049;-76
2023/09/12 14:53:32;;;;;;;16.33;12.68;;;;;;;-147.65;100.00;57646.63;10481056;28;20040;-76
2023/09/12 14:58:32;;;;;;;14.55;12.88;;;;;;;-147.65;100.00;57646.63;10468871;28;20124;-76
2023/09/12 15:03:36;;;;;;;15.03;11.73;;;;;;;-147.65;100.00;57646.63;10442406;28;20056;-76
2023/09/12 15:08:36;;;;;;;16.40;11.40;;;;;;;-147.65;100.00;57646.63;10468360;28;20492;-76
2023/09/12 15:13:37;;;;;;;17.07;12.00;;;;;;;-147.65;100.00;57646.63;10470686;28;20119;-77
2023/09/12 15:18:40;;;;;;;13.40;10.50;;;;;;;-147.65;100.00;57646.63;10465160;28;20119;-76
2023/09/12 15:23:41;;;;;;;21.58;13.05;;;;;;;-147.65;100.00;57646.63;10494293;28;20110;-76
2023/09/12 15:28:41;;;;;;;14.20;11.30;;;;;;;-147.65;100.00;57646.63;10476251;28;20614;-77
2023/09/12 15:33:42;;;;;;;11.70;8.83;;;;;;;-147.65;100.00;57646.63;10420051;28;20128;-77
2023/09/12 15:38:42;;;;;;;13.00;9.37;;;;;;;-147.65;100.00;57646.63;10436620;28;20041;-77
2023/09/12 15:43:43;;;;;;;13.97;10.50;;;;;;;-147.65;100.00;57646.63;10440001;28;20047;-76
2023/09/12 15:48:44;;;;;;;13.73;10.47;;;;;;;-147.65;100.00;57646.63;10449904;28;20045;-77
2023/09/12 15:53:44;;;;;;;11.30;9.27;;;;;;;-147.65;100.00;57646.63;10449292;28;20032;-76
2023/09/12 15:58:48;;;;;;;14.03;9.23;;;;;;;-147.65;100.00;57646.63;10463453;28;20048;-76
2023/09/12 16:03:49;;;;;;;13.23;11.18;;;;;;;-147.65;100.00;57646.63;10488376;28;20037;-77
2023/09/12 16:08:49;;;;;;;11.70;9.30;;;;;;;-147.65;100.00;57646.63;10461435;28;20494;-77
2023/09/12 16:13:50;;;;;;;12.37;11.07;;;;;;;-147.65;100.00;57646.63;10466358;28;20044;-77
2023/09/12 16:18:50;;;;;;;28.93;11.20;;;;;;;-147.65;100.00;57646.63;10467442;28;20049;-77
2023/09/12 16:23:54;;;;;;;11.47;9.10;;;;;;;-147.65;100.00;57646.63;10505637;28;20033;-76
2023/09/12 16:28:54;;;;;;;12.52;10.82;;;;;;;-147.65;100.00;57646.63;10428430;28;20516;-76
2023/09/12 16:33:55;;;;;;;15.03;11.80;;;;;;;-147.65;100.00;57646.63;10448611;28;20064;-76
2023/09/12 16:38:55;;;;;;;17.33;13.07;;;;;;;-147.65;100.00;57646.63;10444647;28;20396;-76
2023/09/12 16:43:56;;;;;;;19.10;13.13;;;;;;;-147.65;100.00;57646.63;10439576;28;20051;-77
2023/09/12 16:48:57;;;;;;;18.53;13.00;;;;;;;-147.65;100.00;57646.63;10456120;28;20037;-77
2023/09/12 16:53:57;;;;;;;16.00;12.80;;;;;;;-147.65;100.00;57646.63;10464784;28;20047;-77
2023/09/12 16:58:58;;;;;;;19.53;12.77;;;;;;;-147.65;100.00;57646.63;10477982;28;20057;-77
2023/09/12 17:04:00;;;;;;;16.20;14.60;;;;;;;-147.65;100.00;57646.63;10442379;28;20179;-77
2023/09/12 17:09:03;;;;;;;18.15;16.25;;;;;;;-147.65;100.00;57646.63;10460031;28;20037;-77
2023/09/12 17:14:03;;;;;;;19.67;16.00;;;;;;;-147.65;100.00;57646.63;10432909;28;20227;-77
2023/09/12 17:19:04;;;;;;;20.30;14.13;;;;;;;-147.65;100.00;57646.63;10461513;28;20416;-77
2023/09/12 17:24:05;;;;;;;25.40;19.27;;;;;;;-147.65;100.00;57646.63;10455632;28;20428;-78
2023/09/12 17:29:05;;;;;;;22.27;18.10;;;;;;;-147.65;100.00;57646.63;10446432;28;20032;-78
2023/09/12 17:34:08;;;;;;;21.40;19.23;;;;;;;-147.65;100.00;57646.63;10466423;28;20076;-78
2023/09/12 17:39:11;;;;;;;23.73;17.63;;;;;;;-147.65;100.00;57646.63;10381379;28;20401;-78
2023/09/12 17:44:11;;;;;;;23.45;19.83;;;;;;;-147.65;100.00;57646.63;10431035;28;20195;-78
2023/09/12 17:49:12;;;;;;;33.65;23.35;;;;;;;-147.65;100.00;57646.63;10431623;28;20050;-79
2023/09/12 17:54:13;;;;;;;29.30;23.73;;;;;;;-147.65;100.00;57646.63;10452160;28;20033;-79
2023/09/12 17:59:13;;;;;;;33.37;28.80;;;;;;;-147.65;100.00;57646.63;10444437;28;20048;-77
2023/09/12 18:04:14;;;;;;;33.92;27.35;;;;;;;-147.65;100.00;57646.63;10450636;28;20126;-77
2023/09/12 18:09:14;;;;;;;48.50;36.28;;;;;;;-147.65;100.00;57646.63;10470553;28;20057;-79
2023/09/12 18:14:15;;;;;;;54.15;41.67;;;;;;;-147.65;100.00;57646.63;10469776;28;20040;-77
2023/09/12 18:19:15;;;;;;;59.08;43.72;;;;;;;-147.65;100.00;57646.63;10483773;28;20567;-76
2023/09/12 18:24:17;;;;;;;53.83;42.57;;;;;;;-147.65;100.00;57646.63;10455236;28;20043;-76
2023/09/12 18:29:17;;;;;;;48.33;40.93;;;;;;;-147.65;100.00;57646.63;10462226;28;20044;-75
2023/09/12 18:34:18;;;;;;;64.27;49.77;;;;;;;-147.65;100.00;57646.63;10460106;28;20495;-76
2023/09/12 18:39:18;;;;;;;65.82;47.50;;;;;;;-147.65;100.00;57646.63;10465684;28;20045;-76
2023/09/12 18:44:20;;;;;;;59.38;48.47;;;;;;;-147.65;100.00;57646.63;10471826;28;20053;-77
2023/09/12 18:49:21;;;;;;;;;;;;;;;-147.65;100.00;57646.63;10470021;28;20040;-76
2023/09/12 18:54:21;;;;;;;61.73;46.33;;;;;;;-147.65;100.00;57646.63;10428917;28;19936;-76
2023/09/12 18:59:22;;;;;;;67.18;46.35;;;;;;;-147.65;100.00;57646.63;10416543;28;20265;-75
2023/09/12 19:04:26;;;;;;;66.78;52.45;;;;;;;-147.65;100.00;57646.63;10404526;28;20045;-76
2023/09/12 19:09:27;;;;;;;77.72;53.90;;;;;;;-147.65;100.00;57646.63;10403139;28;20087;-76
2023/09/12 19:14:27;;;;;;;73.68;53.72;;;;;;;-147.65;100.00;57646.63;10402791;28;20503;-75
2023/09/12 19:19:28;;;;;;;77.00;57.22;;;;;;;-147.65;100.00;57646.63;10427554;28;20127;-75
2023/09/12 19:24:28;;;;;;;80.68;56.70;;;;;;;-147.65;100.00;57646.63;10444910;28;20061;-74
2023/09/12 19:29:31;;;;;;;90.63;62.10;;;;;;;-147.65;100.00;57646.63;10458020;28;20059;-75
2023/09/12 19:34:31;;;;;;;78.15;55.72;;;;;;;-147.65;100.00;57646.63;10443517;28;20041;-74
2023/09/12 19:39:32;;;;;;;100.53;67.72;;;;;;;-147.65;100.00;57646.63;10476137;28;20131;-75
2023/09/12 19:44:32;;;;;;;101.28;74.70;;;;;;;-147.65;100.00;57646.63;10452639;28;20075;-75
2023/09/12 19:49:33;;;;;;;124.27;84.20;;;;;;;-147.65;100.00;57646.63;10449957;28;20079;-74
2023/09/12 19:54:34;;;;;;;118.90;78.00;;;;;;;-147.65;100.00;57646.63;10449494;28;20094;-75
2023/09/12 19:59:34;;;;;;;114.25;78.07;;;;;;;-147.65;100.00;57646.63;10476114;28;20048;-75
2023/09/12 20:04:35;;;;;;;120.85;82.10;;;;;;;-147.65;100.00;57646.63;10437271;28;20030;-75
2023/09/12 20:09:35;;;;;;;111.07;77.78;;;;;;;-147.65;100.00;57646.63;10440906;28;20128;-75
2023/09/12 20:14:36;;;;;;;101.05;73.45;;;;;;;-147.65;100.00;57646.63;10447805;28;20044;-74
2023/09/12 20:19:36;;;;;;;90.60;63.13;;;;;;;-147.65;100.00;57646.63;10442494;28;20040;-75
2023/09/12 20:24:37;;;;;;;94.15;65.65;;;;;;;-147.65;100.00;57646.63;10464490;28;20840;-75
2023/09/12 20:29:37;;;;;;;95.97;60.33;;;;;;;-147.65;100.00;57646.63;10460567;28;20037;-75
2023/09/12 20:34:38;;;;;;;92.18;65.10;;;;;;;-147.65;100.00;57646.63;10497753;28;20389;-75
2023/09/12 20:39:39;;;;;;;85.38;61.30;;;;;;;-147.65;100.00;57646.63;10467540;28;20072;-75
2023/09/12 20:44:39;;;;;;;95.72;62.33;;;;;;;-147.65;100.00;57646.63;10493153;28;20041;-75
2023/09/12 20:49:42;;;;;;;94.13;62.08;;;;;;;-147.65;100.00;57646.63;10466695;28;20127;-76
2023/09/12 20:54:43;;;;;;;101.50;63.42;;;;;;;-147.65;100.00;57646.63;10457318;28;20114;-76
2023/09/12 20:59:43;;;;;;;86.20;60.33;;;;;;;-147.65;100.00;57646.63;10465415;28;20499;-75
2023/09/12 21:04:45;;;;;;;93.90;61.20;;;;;;;-147.65;100.00;57646.63;10437519;28;20102;-77
2023/09/12 21:09:45;;;;;;;88.35;60.40;;;;;;;-147.65;100.00;57646.63;10409308;28;20037;-77
2023/09/12 21:14:46;;;;;;;84.90;53.33;;;;;;;-147.65;100.00;57646.63;10403913;28;20045;-78
2023/09/12 21:19:47;;;;;;;82.72;55.25;;;;;;;-147.65;100.00;57646.63;10432510;28;20079;-76
2023/09/12 21:24:47;;;;;;;84.32;59.08;;;;;;;-147.65;100.00;57646.63;10399903;28;20034;-76
2023/09/12 21:29:48;;;;;;;83.88;59.65;;;;;;;-147.65;100.00;57646.63;10400030;28;20049;-76
2023/09/12 21:34:48;;;;;;;88.07;57.22;;;;;;;-147.65;100.00;57646.63;10397531;28;20095;-77
2023/09/12 21:39:49;;;;;;;82.55;55.33;;;;;;;-147.65;100.00;57646.63;10437838;28;20047;-76
2023/09/12 21:44:49;;;;;;;75.57;52.58;;;;;;;-147.65;100.00;57646.63;10443423;28;20136;-76
2023/09/12 21:49:50;;;;;;;75.20;46.03;;;;;;;-147.65;100.00;57646.63;10399739;28;20493;-75
2023/09/12 21:54:50;;;;;;;63.75;44.70;;;;;;;-147.65;100.00;57646.63;10399822;28;20052;-76
2023/09/12 21:59:51;;;;;;;49.80;39.17;;;;;;;-147.65;100.00;57646.63;10403120;28;20486;-77
2023/09/12 22:04:52;;;;;;;65.97;44.35;;;;;;;-147.65;100.00;57646.63;10439475;28;20098;-79